sensor_id;sensor_type;location;lat;lon;timestamp;temperature;humidity
28530;DHT22;15737;49.760;6.632;2022-09-03T00:00:13;16.80;59.50
28530;DHT22;15737;49.760;6.632;2022-09-03T00:02:44;16.80;59.50
28530;DHT22;15737;49.760;6.632;2022-09-03T00:05:25;16.90;59.40
28530;DHT22;15737;49.760;6.632;2022-09-03T00:08:18;16.80;60.00
28530;DHT22;15737;49.760;6.632;2022-09-03T00:13:23;16.80;60.00
28530;DHT22;15737;49.760;6.632;2022-09-03T00:15:50;16.80;59.80
28530;DHT22;15737;49.760;6.632;2022-09-03T00:18:23;16.90;60.00
28530;DHT22;15737;49.760;6.632;2022-09-03T00:20:55;16.90;60.30
28530;DHT22;15737;49.760;6.632;2022-09-03T00:23:25;16.90;60.20
28530;DHT22;15737;49.760;6.632;2022-09-03T00:31:17;16.90;60.20
28530;DHT22;15737;49.760;6.632;2022-09-03T00:33:45;16.90;60.30
28530;DHT22;15737;49.760;6.632;2022-09-03T00:36:22;17.00;60.50
28530;DHT22;15737;49.760;6.632;2022-09-03T00:38:50;16.90;60.20
28530;DHT22;15737;49.760;6.632;2022-09-03T00:41:30;16.90;60.50
28530;DHT22;15737;49.760;6.632;2022-09-03T00:46:44;17.10;60.10
28530;DHT22;15737;49.760;6.632;2022-09-03T00:49:36;17.10;60.00
28530;DHT22;15737;49.760;6.632;2022-09-03T00:52:37;17.20;60.00
28530;DHT22;15737;49.760;6.632;2022-09-03T00:55:32;17.20;59.90
28530;DHT22;15737;49.760;6.632;2022-09-03T00:58:16;17.20;60.00
28530;DHT22;15737;49.760;6.632;2022-09-03T01:00:45;17.10;60.10
28530;DHT22;15737;49.760;6.632;2022-09-03T01:20:09;17.10;61.00
28530;DHT22;15737;49.760;6.632;2022-09-03T01:23:29;17.10;60.80
28530;DHT22;15737;49.760;6.632;2022-09-03T01:34:53;17.10;61.60
28530;DHT22;15737;49.760;6.632;2022-09-03T01:43:06;17.10;62.00
28530;DHT22;15737;49.760;6.632;2022-09-03T01:45:57;17.10;62.50
28530;DHT22;15737;49.760;6.632;2022-09-03T01:48:31;17.10;62.30
28530;DHT22;15737;49.760;6.632;2022-09-03T01:51:23;17.10;62.40
28530;DHT22;15737;49.760;6.632;2022-09-03T01:54:10;17.20;62.50
28530;DHT22;15737;49.760;6.632;2022-09-03T02:02:32;17.10;62.60
28530;DHT22;15737;49.760;6.632;2022-09-03T02:05:08;17.10;62.50
28530;DHT22;15737;49.760;6.632;2022-09-03T02:07:37;17.10;62.30
28530;DHT22;15737;49.760;6.632;2022-09-03T02:10:08;17.20;62.30
28530;DHT22;15737;49.760;6.632;2022-09-03T02:12:36;17.20;62.50
28530;DHT22;15737;49.760;6.632;2022-09-03T02:15:06;17.20;62.50
28530;DHT22;15737;49.760;6.632;2022-09-03T02:17:34;17.20;62.60
28530;DHT22;15737;49.760;6.632;2022-09-03T02:20:05;17.10;62.60
28530;DHT22;15737;49.760;6.632;2022-09-03T02:22:32;17.10;62.80
28530;DHT22;15737;49.760;6.632;2022-09-03T02:24:59;17.10;63.10
28530;DHT22;15737;49.760;6.632;2022-09-03T02:27:25;17.10;63.80
28530;DHT22;15737;49.760;6.632;2022-09-03T02:29:51;17.10;64.50
28530;DHT22;15737;49.760;6.632;2022-09-03T02:32:17;17.00;64.50
28530;DHT22;15737;49.760;6.632;2022-09-03T02:34:43;17.00;64.80
28530;DHT22;15737;49.760;6.632;2022-09-03T02:37:13;17.10;65.00
28530;DHT22;15737;49.760;6.632;2022-09-03T02:39:39;17.10;65.50
28530;DHT22;15737;49.760;6.632;2022-09-03T02:42:05;17.10;66.00
28530;DHT22;15737;49.760;6.632;2022-09-03T02:44:32;16.90;69.40
28530;DHT22;15737;49.760;6.632;2022-09-03T02:47:02;16.60;69.80
28530;DHT22;15737;49.760;6.632;2022-09-03T02:49:28;16.40;70.70
28530;DHT22;15737;49.760;6.632;2022-09-03T02:52:02;16.40;72.10
28530;DHT22;15737;49.760;6.632;2022-09-03T02:54:32;16.20;73.30
28530;DHT22;15737;49.760;6.632;2022-09-03T02:57:00;16.10;74.60
28530;DHT22;15737;49.760;6.632;2022-09-03T02:59:26;16.10;76.50
28530;DHT22;15737;49.760;6.632;2022-09-03T03:01:53;16.00;77.60
28530;DHT22;15737;49.760;6.632;2022-09-03T03:04:19;15.90;80.10
28530;DHT22;15737;49.760;6.632;2022-09-03T03:06:45;15.70;81.50
28530;DHT22;15737;49.760;6.632;2022-09-03T03:09:10;15.60;82.90
28530;DHT22;15737;49.760;6.632;2022-09-03T03:11:36;15.40;84.30
28530;DHT22;15737;49.760;6.632;2022-09-03T03:14:04;15.40;85.70
28530;DHT22;15737;49.760;6.632;2022-09-03T03:16:30;15.30;88.30
28530;DHT22;15737;49.760;6.632;2022-09-03T03:18:56;15.20;90.80
28530;DHT22;15737;49.760;6.632;2022-09-03T03:21:22;15.20;91.80
28530;DHT22;15737;49.760;6.632;2022-09-03T03:23:47;15.10;93.10
28530;DHT22;15737;49.760;6.632;2022-09-03T03:26:15;15.10;94.20
28530;DHT22;15737;49.760;6.632;2022-09-03T03:28:45;15.10;95.10
28530;DHT22;15737;49.760;6.632;2022-09-03T03:31:13;15.10;96.20
28530;DHT22;15737;49.760;6.632;2022-09-03T03:33:39;15.10;96.90
28530;DHT22;15737;49.760;6.632;2022-09-03T03:36:08;15.10;97.60
28530;DHT22;15737;49.760;6.632;2022-09-03T03:38:34;15.00;99.00
28530;DHT22;15737;49.760;6.632;2022-09-03T03:41:13;14.90;99.70
28530;DHT22;15737;49.760;6.632;2022-09-03T03:43:40;14.90;99.90
28530;DHT22;15737;49.760;6.632;2022-09-03T03:46:06;14.90;99.90
28530;DHT22;15737;49.760;6.632;2022-09-03T03:48:32;15.00;99.90
28530;DHT22;15737;49.760;6.632;2022-09-03T03:51:02;15.00;99.90
28530;DHT22;15737;49.760;6.632;2022-09-03T03:53:30;15.00;99.90
28530;DHT22;15737;49.760;6.632;2022-09-03T03:56:01;15.00;99.90
28530;DHT22;15737;49.760;6.632;2022-09-03T03:58:28;14.90;99.90
28530;DHT22;15737;49.760;6.632;2022-09-03T04:00:54;14.90;99.90
28530;DHT22;15737;49.760;6.632;2022-09-03T04:03:20;14.90;99.90
28530;DHT22;15737;49.760;6.632;2022-09-03T04:05:56;14.90;99.90
28530;DHT22;15737;49.760;6.632;2022-09-03T04:08:22;15.00;99.90
28530;DHT22;15737;49.760;6.632;2022-09-03T04:10:48;14.90;99.90
28530;DHT22;15737;49.760;6.632;2022-09-03T04:13:13;14.90;99.90
28530;DHT22;15737;49.760;6.632;2022-09-03T04:15:39;14.90;99.90
28530;DHT22;15737;49.760;6.632;2022-09-03T04:18:05;14.90;99.90
28530;DHT22;15737;49.760;6.632;2022-09-03T04:20:30;14.80;99.90
28530;DHT22;15737;49.760;6.632;2022-09-03T04:22:59;14.80;99.90
28530;DHT22;15737;49.760;6.632;2022-09-03T04:25:25;14.80;99.90
28530;DHT22;15737;49.760;6.632;2022-09-03T04:27:51;14.80;99.90
28530;DHT22;15737;49.760;6.632;2022-09-03T04:30:17;14.80;99.90
28530;DHT22;15737;49.760;6.632;2022-09-03T04:32:43;14.80;99.90
28530;DHT22;15737;49.760;6.632;2022-09-03T04:35:18;14.80;99.90
28530;DHT22;15737;49.760;6.632;2022-09-03T04:37:45;14.70;99.90
28530;DHT22;15737;49.760;6.632;2022-09-03T04:40:11;14.80;99.90
28530;DHT22;15737;49.760;6.632;2022-09-03T04:42:36;14.80;99.90
28530;DHT22;15737;49.760;6.632;2022-09-03T04:45:02;14.80;99.90
28530;DHT22;15737;49.760;6.632;2022-09-03T04:47:28;14.80;99.90
28530;DHT22;15737;49.760;6.632;2022-09-03T04:49:53;14.80;99.90
28530;DHT22;15737;49.760;6.632;2022-09-03T04:52:19;14.70;99.90
28530;DHT22;15737;49.760;6.632;2022-09-03T04:54:45;14.70;99.90
28530;DHT22;15737;49.760;6.632;2022-09-03T04:57:10;14.70;99.90
28530;DHT22;15737;49.760;6.632;2022-09-03T04:59:36;14.70;99.90
28530;DHT22;15737;49.760;6.632;2022-09-03T05:02:02;14.80;99.90
28530;DHT22;15737;49.760;6.632;2022-09-03T05:04:31;14.80;99.90
28530;DHT22;15737;49.760;6.632;2022-09-03T05:06:58;14.80;99.90
28530;DHT22;15737;49.760;6.632;2022-09-03T05:09:24;14.80;99.90
28530;DHT22;15737;49.760;6.632;2022-09-03T05:11:49;14.80;99.90
28530;DHT22;15737;49.760;6.632;2022-09-03T05:14:15;14.80;99.90
28530;DHT22;15737;49.760;6.632;2022-09-03T05:16:40;14.70;99.90
28530;DHT22;15737;49.760;6.632;2022-09-03T05:19:06;14.70;99.90
28530;DHT22;15737;49.760;6.632;2022-09-03T05:21:33;14.70;99.90
28530;DHT22;15737;49.760;6.632;2022-09-03T05:24:00;14.60;99.90
28530;DHT22;15737;49.760;6.632;2022-09-03T05:26:29;14.70;99.90
28530;DHT22;15737;49.760;6.632;2022-09-03T05:29:00;14.60;99.90
28530;DHT22;15737;49.760;6.632;2022-09-03T05:31:28;14.60;99.90
28530;DHT22;15737;49.760;6.632;2022-09-03T05:33:57;14.70;99.90
28530;DHT22;15737;49.760;6.632;2022-09-03T05:36:26;14.70;99.90
28530;DHT22;15737;49.760;6.632;2022-09-03T05:38:51;14.80;99.90
28530;DHT22;15737;49.760;6.632;2022-09-03T05:41:21;14.80;99.90
28530;DHT22;15737;49.760;6.632;2022-09-03T05:43:49;14.90;99.90
28530;DHT22;15737;49.760;6.632;2022-09-03T05:46:24;15.10;99.90
28530;DHT22;15737;49.760;6.632;2022-09-03T05:48:58;15.20;99.90
28530;DHT22;15737;49.760;6.632;2022-09-03T05:51:24;15.30;99.90
28530;DHT22;15737;49.760;6.632;2022-09-03T05:53:49;15.40;99.90
28530;DHT22;15737;49.760;6.632;2022-09-03T05:56:17;15.60;99.90
28530;DHT22;15737;49.760;6.632;2022-09-03T05:58:45;15.60;99.90
28530;DHT22;15737;49.760;6.632;2022-09-03T06:01:26;15.80;99.90
28530;DHT22;15737;49.760;6.632;2022-09-03T06:04:03;16.00;99.90
28530;DHT22;15737;49.760;6.632;2022-09-03T06:06:31;16.30;99.90
28530;DHT22;15737;49.760;6.632;2022-09-03T06:08:59;16.50;99.90
28530;DHT22;15737;49.760;6.632;2022-09-03T06:11:25;16.70;99.90
28530;DHT22;15737;49.760;6.632;2022-09-03T06:13:58;16.90;99.90
28530;DHT22;15737;49.760;6.632;2022-09-03T06:16:26;17.00;99.90
28530;DHT22;15737;49.760;6.632;2022-09-03T06:18:52;17.00;99.90
28530;DHT22;15737;49.760;6.632;2022-09-03T06:21:18;17.20;99.90
28530;DHT22;15737;49.760;6.632;2022-09-03T06:23:51;17.50;99.90
28530;DHT22;15737;49.760;6.632;2022-09-03T06:26:18;17.90;99.90
28530;DHT22;15737;49.760;6.632;2022-09-03T06:28:45;18.20;99.90
28530;DHT22;15737;49.760;6.632;2022-09-03T06:31:17;18.50;99.90
28530;DHT22;15737;49.760;6.632;2022-09-03T06:33:43;18.90;99.90
28530;DHT22;15737;49.760;6.632;2022-09-03T06:36:11;19.30;99.90
28530;DHT22;15737;49.760;6.632;2022-09-03T06:38:40;19.70;99.90
28530;DHT22;15737;49.760;6.632;2022-09-03T06:41:09;20.40;99.90
28530;DHT22;15737;49.760;6.632;2022-09-03T06:43:37;20.70;98.60
28530;DHT22;15737;49.760;6.632;2022-09-03T06:46:05;20.70;97.90
28530;DHT22;15737;49.760;6.632;2022-09-03T06:48:33;21.00;97.20
28530;DHT22;15737;49.760;6.632;2022-09-03T06:51:05;21.50;96.00
28530;DHT22;15737;49.760;6.632;2022-09-03T06:53:33;21.60;94.90
28530;DHT22;15737;49.760;6.632;2022-09-03T06:56:01;21.90;94.00
28530;DHT22;15737;49.760;6.632;2022-09-03T06:58:32;21.80;93.60
28530;DHT22;15737;49.760;6.632;2022-09-03T07:01:11;22.10;93.10
28530;DHT22;15737;49.760;6.632;2022-09-03T07:03:38;22.40;91.90
28530;DHT22;15737;49.760;6.632;2022-09-03T07:06:28;22.90;90.90
28530;DHT22;15737;49.760;6.632;2022-09-03T07:08:54;23.60;88.00
28530;DHT22;15737;49.760;6.632;2022-09-03T07:11:23;23.80;85.40
28530;DHT22;15737;49.760;6.632;2022-09-03T07:13:50;23.50;85.70
28530;DHT22;15737;49.760;6.632;2022-09-03T07:16:19;23.20;86.20
28530;DHT22;15737;49.760;6.632;2022-09-03T07:18:46;22.80;86.70
28530;DHT22;15737;49.760;6.632;2022-09-03T07:21:14;21.80;88.10
28530;DHT22;15737;49.760;6.632;2022-09-03T07:23:40;20.80;90.60
28530;DHT22;15737;49.760;6.632;2022-09-03T07:26:12;20.20;91.70
28530;DHT22;15737;49.760;6.632;2022-09-03T07:28:39;20.20;92.10
28530;DHT22;15737;49.760;6.632;2022-09-03T07:31:11;20.00;92.20
28530;DHT22;15737;49.760;6.632;2022-09-03T07:33:37;19.90;92.50
28530;DHT22;15737;49.760;6.632;2022-09-03T07:36:09;20.10;92.30
28530;DHT22;15737;49.760;6.632;2022-09-03T07:38:36;20.00;92.10
28530;DHT22;15737;49.760;6.632;2022-09-03T07:41:04;19.90;92.20
28530;DHT22;15737;49.760;6.632;2022-09-03T07:45:59;20.10;92.00
28530;DHT22;15737;49.760;6.632;2022-09-03T07:48:28;20.30;91.50
28530;DHT22;15737;49.760;6.632;2022-09-03T07:50:58;20.40;91.00
28530;DHT22;15737;49.760;6.632;2022-09-03T07:53:26;20.40;90.80
28530;DHT22;15737;49.760;6.632;2022-09-03T07:55:52;20.60;90.60
28530;DHT22;15737;49.760;6.632;2022-09-03T07:58:18;21.10;89.20
28530;DHT22;15737;49.760;6.632;2022-09-03T08:00:48;21.50;87.50
28530;DHT22;15737;49.760;6.632;2022-09-03T08:03:13;22.40;85.20
28530;DHT22;15737;49.760;6.632;2022-09-03T08:05:39;23.20;81.90
28530;DHT22;15737;49.760;6.632;2022-09-03T08:08:05;23.30;79.90
28530;DHT22;15737;49.760;6.632;2022-09-03T08:10:35;22.90;80.20
28530;DHT22;15737;49.760;6.632;2022-09-03T08:13:02;22.40;81.00
28530;DHT22;15737;49.760;6.632;2022-09-03T08:18:00;21.60;83.10
28530;DHT22;15737;49.760;6.632;2022-09-03T08:20:27;21.30;84.10
28530;DHT22;15737;49.760;6.632;2022-09-03T08:22:58;21.20;84.60
28530;DHT22;15737;49.760;6.632;2022-09-03T08:25:24;21.50;84.20
28530;DHT22;15737;49.760;6.632;2022-09-03T08:27:50;21.70;83.10
28530;DHT22;15737;49.760;6.632;2022-09-03T08:30:16;22.40;81.00
28530;DHT22;15737;49.760;6.632;2022-09-03T08:32:41;23.10;78.00
28530;DHT22;15737;49.760;6.632;2022-09-03T08:35:07;23.90;76.00
28530;DHT22;15737;49.760;6.632;2022-09-03T08:37:34;24.40;74.20
28530;DHT22;15737;49.760;6.632;2022-09-03T08:40:00;25.70;70.60
28530;DHT22;15737;49.760;6.632;2022-09-03T08:42:35;29.40;59.80
28530;DHT22;15737;49.760;6.632;2022-09-03T08:45:06;33.20;51.10
28530;DHT22;15737;49.760;6.632;2022-09-03T08:47:40;35.20;46.00
28530;DHT22;15737;49.760;6.632;2022-09-03T08:53:11;34.20;45.80
28530;DHT22;15737;49.760;6.632;2022-09-03T08:55:50;33.20;46.70
28530;DHT22;15737;49.760;6.632;2022-09-03T08:58:21;31.70;48.80
28530;DHT22;15737;49.760;6.632;2022-09-03T09:01:05;30.70;50.60
28530;DHT22;15737;49.760;6.632;2022-09-03T09:10:09;36.50;42.10
28530;DHT22;15737;49.760;6.632;2022-09-03T09:13:04;38.40;39.70
28530;DHT22;15737;49.760;6.632;2022-09-03T09:15:47;39.80;37.80
28530;DHT22;15737;49.760;6.632;2022-09-03T09:18:38;38.00;39.30
28530;DHT22;15737;49.760;6.632;2022-09-03T09:21:08;37.60;39.40
28530;DHT22;15737;49.760;6.632;2022-09-03T09:23:42;38.40;38.80
28530;DHT22;15737;49.760;6.632;2022-09-03T09:26:15;38.60;38.00
28530;DHT22;15737;49.760;6.632;2022-09-03T09:28:44;38.60;38.50
28530;DHT22;15737;49.760;6.632;2022-09-03T09:31:11;38.40;38.70
28530;DHT22;15737;49.760;6.632;2022-09-03T09:33:40;36.50;40.80
28530;DHT22;15737;49.760;6.632;2022-09-03T09:36:09;33.50;45.10
28530;DHT22;15737;49.760;6.632;2022-09-03T09:38:38;31.00;49.40
28530;DHT22;15737;49.760;6.632;2022-09-03T09:41:12;29.80;52.10
28530;DHT22;15737;49.760;6.632;2022-09-03T09:43:38;31.00;50.40
28530;DHT22;15737;49.760;6.632;2022-09-03T09:46:13;32.70;47.60
28530;DHT22;15737;49.760;6.632;2022-09-03T09:48:50;33.60;46.30
28530;DHT22;15737;49.760;6.632;2022-09-03T09:51:27;34.20;45.30
28530;DHT22;15737;49.760;6.632;2022-09-03T09:54:14;33.30;46.90
28530;DHT22;15737;49.760;6.632;2022-09-03T09:56:45;32.50;48.20
28530;DHT22;15737;49.760;6.632;2022-09-03T09:59:12;30.90;50.40
28530;DHT22;15737;49.760;6.632;2022-09-03T10:01:41;29.70;52.80
28530;DHT22;15737;49.760;6.632;2022-09-03T10:04:30;28.90;54.40
28530;DHT22;15737;49.760;6.632;2022-09-03T10:09:44;29.50;53.80
28530;DHT22;15737;49.760;6.632;2022-09-03T10:12:30;31.40;50.30
28530;DHT22;15737;49.760;6.632;2022-09-03T10:15:18;32.50;48.60
28530;DHT22;15737;49.760;6.632;2022-09-03T10:23:25;30.70;51.40
28530;DHT22;15737;49.760;6.632;2022-09-03T10:26:15;29.80;52.70
28530;DHT22;15737;49.760;6.632;2022-09-03T10:28:42;30.40;52.00
28530;DHT22;15737;49.760;6.632;2022-09-03T10:39:44;34.50;45.80
28530;DHT22;15737;49.760;6.632;2022-09-03T10:42:34;34.20;45.30
28530;DHT22;15737;49.760;6.632;2022-09-03T10:47:59;34.30;45.10
28530;DHT22;15737;49.760;6.632;2022-09-03T10:50:30;33.60;45.90
28530;DHT22;15737;49.760;6.632;2022-09-03T10:53:20;33.00;47.30
28530;DHT22;15737;49.760;6.632;2022-09-03T10:55:59;32.10;48.40
28530;DHT22;15737;49.760;6.632;2022-09-03T11:07:03;28.40;55.40
28530;DHT22;15737;49.760;6.632;2022-09-03T11:09:39;29.10;54.20
28530;DHT22;15737;49.760;6.632;2022-09-03T11:12:12;29.20;54.30
28530;DHT22;15737;49.760;6.632;2022-09-03T11:14:45;30.10;52.70
28530;DHT22;15737;49.760;6.632;2022-09-03T11:17:25;30.20;52.60
28530;DHT22;15737;49.760;6.632;2022-09-03T11:20:16;30.10;52.80
28530;DHT22;15737;49.760;6.632;2022-09-03T11:22:43;29.20;54.00
28530;DHT22;15737;49.760;6.632;2022-09-03T11:25:12;28.50;55.30
28530;DHT22;15737;49.760;6.632;2022-09-03T11:35:23;27.70;57.80
28530;DHT22;15737;49.760;6.632;2022-09-03T11:40:39;26.80;59.50
28530;DHT22;15737;49.760;6.632;2022-09-03T11:43:12;26.70;60.80
28530;DHT22;15737;49.760;6.632;2022-09-03T11:45:40;26.40;63.60
28530;DHT22;15737;49.760;6.632;2022-09-03T11:48:42;25.80;64.20
28530;DHT22;15737;49.760;6.632;2022-09-03T11:56:45;23.30;73.50
28530;DHT22;15737;49.760;6.632;2022-09-03T11:59:24;23.10;75.30
28530;DHT22;15737;49.760;6.632;2022-09-03T12:01:59;22.90;76.80
28530;DHT22;15737;49.760;6.632;2022-09-03T12:04:34;22.70;79.80
28530;DHT22;15737;49.760;6.632;2022-09-03T12:07:28;22.40;82.50
28530;DHT22;15737;49.760;6.632;2022-09-03T12:18:43;21.10;96.50
28530;DHT22;15737;49.760;6.632;2022-09-03T12:21:11;20.70;99.10
28530;DHT22;15737;49.760;6.632;2022-09-03T12:26:15;19.80;99.90
28530;DHT22;15737;49.760;6.632;2022-09-03T12:28:44;18.70;99.90
28530;DHT22;15737;49.760;6.632;2022-09-03T12:31:20;17.60;99.90
28530;DHT22;15737;49.760;6.632;2022-09-03T12:34:09;17.10;99.90
28530;DHT22;15737;49.760;6.632;2022-09-03T12:36:43;16.80;99.90
28530;DHT22;15737;49.760;6.632;2022-09-03T12:39:17;16.90;99.90
28530;DHT22;15737;49.760;6.632;2022-09-03T12:42:02;17.10;99.90
28530;DHT22;15737;49.760;6.632;2022-09-03T12:47:01;17.80;99.90
28530;DHT22;15737;49.760;6.632;2022-09-03T12:49:34;18.20;99.90
28530;DHT22;15737;49.760;6.632;2022-09-03T12:57:23;18.90;99.90
28530;DHT22;15737;49.760;6.632;2022-09-03T12:59:55;19.20;99.90
28530;DHT22;15737;49.760;6.632;2022-09-03T13:02:27;19.60;99.90
28530;DHT22;15737;49.760;6.632;2022-09-03T13:04:55;20.10;99.90
28530;DHT22;15737;49.760;6.632;2022-09-03T13:07:26;20.60;99.90
28530;DHT22;15737;49.760;6.632;2022-09-03T13:10:00;20.90;99.90
28530;DHT22;15737;49.760;6.632;2022-09-03T13:12:32;20.90;99.90
28530;DHT22;15737;49.760;6.632;2022-09-03T13:15:05;21.00;99.90
28530;DHT22;15737;49.760;6.632;2022-09-03T13:17:54;21.30;99.90
28530;DHT22;15737;49.760;6.632;2022-09-03T13:20:33;21.50;99.90
28530;DHT22;15737;49.760;6.632;2022-09-03T13:23:34;21.60;99.90
28530;DHT22;15737;49.760;6.632;2022-09-03T13:26:11;21.50;99.90
28530;DHT22;15737;49.760;6.632;2022-09-03T13:31:46;21.20;99.90
28530;DHT22;15737;49.760;6.632;2022-09-03T13:34:27;21.50;99.90
28530;DHT22;15737;49.760;6.632;2022-09-03T13:39:53;21.90;99.90
28530;DHT22;15737;49.760;6.632;2022-09-03T13:42:37;22.20;99.90
28530;DHT22;15737;49.760;6.632;2022-09-03T13:45:27;22.40;99.90
28530;DHT22;15737;49.760;6.632;2022-09-03T13:48:12;22.70;99.90
28530;DHT22;15737;49.760;6.632;2022-09-03T13:51:12;22.50;99.90
28530;DHT22;15737;49.760;6.632;2022-09-03T13:59:47;22.80;99.90
28530;DHT22;15737;49.760;6.632;2022-09-03T14:02:49;23.20;99.90
28530;DHT22;15737;49.760;6.632;2022-09-03T14:13:49;23.30;99.90
28530;DHT22;15737;49.760;6.632;2022-09-03T14:19:16;23.40;99.90
28530;DHT22;15737;49.760;6.632;2022-09-03T14:21:51;23.30;99.90
28530;DHT22;15737;49.760;6.632;2022-09-03T14:27:00;23.50;99.90
28530;DHT22;15737;49.760;6.632;2022-09-03T14:29:29;23.60;99.90
28530;DHT22;15737;49.760;6.632;2022-09-03T14:34:54;24.20;99.90
28530;DHT22;15737;49.760;6.632;2022-09-03T14:40:17;24.70;99.90
28530;DHT22;15737;49.760;6.632;2022-09-03T14:43:30;25.00;99.90
28530;DHT22;15737;49.760;6.632;2022-09-03T14:49:17;25.80;99.90
28530;DHT22;15737;49.760;6.632;2022-09-03T15:00:15;25.00;99.90
28530;DHT22;15737;49.760;6.632;2022-09-03T15:03:13;24.80;99.90
28530;DHT22;15737;49.760;6.632;2022-09-03T15:08:18;25.50;99.90
28530;DHT22;15737;49.760;6.632;2022-09-03T15:10:54;25.20;99.90
28530;DHT22;15737;49.760;6.632;2022-09-03T15:13:29;24.50;99.90
28530;DHT22;15737;49.760;6.632;2022-09-03T15:16:16;24.20;99.90
28530;DHT22;15737;49.760;6.632;2022-09-03T15:30:15;24.50;99.10
28530;DHT22;15737;49.760;6.632;2022-09-03T15:32:52;25.00;98.40
28530;DHT22;15737;49.760;6.632;2022-09-03T15:38:33;25.00;98.00
28530;DHT22;15737;49.760;6.632;2022-09-03T15:41:04;25.60;97.10
28530;DHT22;15737;49.760;6.632;2022-09-03T15:43:33;26.30;95.90
28530;DHT22;15737;49.760;6.632;2022-09-03T15:46:29;26.70;94.70
28530;DHT22;15737;49.760;6.632;2022-09-03T15:48:57;27.30;93.40
28530;DHT22;15737;49.760;6.632;2022-09-03T15:51:32;27.40;92.60
28530;DHT22;15737;49.760;6.632;2022-09-03T15:54:15;27.30;92.00
28530;DHT22;15737;49.760;6.632;2022-09-03T15:57:02;26.50;92.20
28530;DHT22;15737;49.760;6.632;2022-09-03T15:59:41;26.00;93.00
28530;DHT22;15737;49.760;6.632;2022-09-03T16:02:15;26.30;92.60
28530;DHT22;15737;49.760;6.632;2022-09-03T16:05:15;26.60;91.70
28530;DHT22;15737;49.760;6.632;2022-09-03T16:08:00;26.50;91.50
28530;DHT22;15737;49.760;6.632;2022-09-03T16:11:06;26.30;91.60
28530;DHT22;15737;49.760;6.632;2022-09-03T16:13:54;25.90;92.20
28530;DHT22;15737;49.760;6.632;2022-09-03T16:19:22;26.30;91.60
28530;DHT22;15737;49.760;6.632;2022-09-03T16:21:59;26.00;92.00
28530;DHT22;15737;49.760;6.632;2022-09-03T16:24:32;25.80;92.30
28530;DHT22;15737;49.760;6.632;2022-09-03T16:27:19;25.70;92.50
28530;DHT22;15737;49.760;6.632;2022-09-03T16:30:13;25.70;92.60
28530;DHT22;15737;49.760;6.632;2022-09-03T16:32:43;25.50;92.70
28530;DHT22;15737;49.760;6.632;2022-09-03T16:35:45;25.30;92.70
28530;DHT22;15737;49.760;6.632;2022-09-03T16:41:15;24.60;93.30
28530;DHT22;15737;49.760;6.632;2022-09-03T16:47:00;23.60;95.10
28530;DHT22;15737;49.760;6.632;2022-09-03T17:20:04;21.20;99.90
28530;DHT22;15737;49.760;6.632;2022-09-03T17:25:28;21.10;99.90
28530;DHT22;15737;49.760;6.632;2022-09-03T17:44:45;20.60;99.90
28530;DHT22;15737;49.760;6.632;2022-09-03T17:52:42;20.40;99.90
28530;DHT22;15737;49.760;6.632;2022-09-03T18:00:43;20.40;99.90
28530;DHT22;15737;49.760;6.632;2022-09-03T18:03:19;20.40;99.90
28530;DHT22;15737;49.760;6.632;2022-09-03T18:06:00;20.50;99.90
28530;DHT22;15737;49.760;6.632;2022-09-03T18:08:48;20.60;99.90
28530;DHT22;15737;49.760;6.632;2022-09-03T18:11:46;20.60;99.90
28530;DHT22;15737;49.760;6.632;2022-09-03T18:17:04;20.50;99.90
28530;DHT22;15737;49.760;6.632;2022-09-03T18:19:35;20.40;99.90
28530;DHT22;15737;49.760;6.632;2022-09-03T18:22:25;20.30;99.90
28530;DHT22;15737;49.760;6.632;2022-09-03T18:25:13;20.30;99.90
28530;DHT22;15737;49.760;6.632;2022-09-03T18:28:00;20.20;99.90
28530;DHT22;15737;49.760;6.632;2022-09-03T18:30:47;20.10;99.90
28530;DHT22;15737;49.760;6.632;2022-09-03T18:33:27;20.00;99.90
28530;DHT22;15737;49.760;6.632;2022-09-03T18:36:12;20.00;99.90
28530;DHT22;15737;49.760;6.632;2022-09-03T18:42:18;19.60;99.90
28530;DHT22;15737;49.760;6.632;2022-09-03T18:51:39;19.00;99.90
28530;DHT22;15737;49.760;6.632;2022-09-03T18:57:24;19.10;99.90
28530;DHT22;15737;49.760;6.632;2022-09-03T19:00:12;19.10;99.90
28530;DHT22;15737;49.760;6.632;2022-09-03T19:03:25;19.10;99.90
28530;DHT22;15737;49.760;6.632;2022-09-03T19:06:22;19.20;99.90
28530;DHT22;15737;49.760;6.632;2022-09-03T19:09:47;19.20;99.90
28530;DHT22;15737;49.760;6.632;2022-09-03T19:13:06;19.20;99.90
28530;DHT22;15737;49.760;6.632;2022-09-03T19:16:16;19.30;99.90
28530;DHT22;15737;49.760;6.632;2022-09-03T19:19:28;19.30;99.90
28530;DHT22;15737;49.760;6.632;2022-09-03T19:22:37;19.30;99.90
28530;DHT22;15737;49.760;6.632;2022-09-03T19:25:22;19.30;99.90
28530;DHT22;15737;49.760;6.632;2022-09-03T19:28:29;19.20;99.90
28530;DHT22;15737;49.760;6.632;2022-09-03T19:31:40;19.20;99.90
28530;DHT22;15737;49.760;6.632;2022-09-03T19:38:03;19.30;99.90
28530;DHT22;15737;49.760;6.632;2022-09-03T19:44:33;19.20;99.90
28530;DHT22;15737;49.760;6.632;2022-09-03T19:47:35;19.10;99.90
28530;DHT22;15737;49.760;6.632;2022-09-03T19:50:28;19.00;99.90
28530;DHT22;15737;49.760;6.632;2022-09-03T19:53:17;19.00;99.90
28530;DHT22;15737;49.760;6.632;2022-09-03T19:56:06;18.90;99.90
28530;DHT22;15737;49.760;6.632;2022-09-03T19:58:55;18.90;99.90
28530;DHT22;15737;49.760;6.632;2022-09-03T20:01:41;18.90;99.90
28530;DHT22;15737;49.760;6.632;2022-09-03T20:04:33;19.00;99.90
28530;DHT22;15737;49.760;6.632;2022-09-03T20:07:19;19.00;99.90
28530;DHT22;15737;49.760;6.632;2022-09-03T20:10:06;18.90;99.90
28530;DHT22;15737;49.760;6.632;2022-09-03T20:12:54;18.90;99.90
28530;DHT22;15737;49.760;6.632;2022-09-03T20:15:28;18.90;99.90
28530;DHT22;15737;49.760;6.632;2022-09-03T20:18:20;18.90;99.90
28530;DHT22;15737;49.760;6.632;2022-09-03T20:32:21;18.70;99.90
28530;DHT22;15737;49.760;6.632;2022-09-03T20:38:03;18.50;99.90
28530;DHT22;15737;49.760;6.632;2022-09-03T20:40:44;18.50;99.90
28530;DHT22;15737;49.760;6.632;2022-09-03T20:49:47;18.00;99.90
28530;DHT22;15737;49.760;6.632;2022-09-03T20:52:20;17.90;99.90
28530;DHT22;15737;49.760;6.632;2022-09-03T20:55:01;17.70;99.90
28530;DHT22;15737;49.760;6.632;2022-09-03T21:03:00;17.40;99.90
28530;DHT22;15737;49.760;6.632;2022-09-03T21:10:52;17.30;99.90
28530;DHT22;15737;49.760;6.632;2022-09-03T21:16:12;17.20;99.90
28530;DHT22;15737;49.760;6.632;2022-09-03T21:22:10;17.00;99.90
28530;DHT22;15737;49.760;6.632;2022-09-03T21:24:52;17.00;99.90
28530;DHT22;15737;49.760;6.632;2022-09-03T21:27:23;16.90;99.90
28530;DHT22;15737;49.760;6.632;2022-09-03T21:30:00;16.90;99.90
28530;DHT22;15737;49.760;6.632;2022-09-03T21:32:37;16.80;99.90
28530;DHT22;15737;49.760;6.632;2022-09-03T21:37:36;16.70;99.90